Terminal Aerodrome Forecast
Issued by NWS Glasgow, MT

Home | Current Version | Previous Version | Text Only | Print | Product List | Glossary On
Versions: 1 2 3 4 5 6 7 8 9 10 11 12 13 14 15
000
FTUS45 KGGW 220520
TAFGGW
TAF
KGGW 220520Z 2206/2306 VRB06KT P6SM SKC
     FM221600 31010KT P6SM FEW160
     FM222200 31015G23KT P6SM FEW190
     FM230100 33009KT P6SM FEW170
     FM230300 03007KT P6SM FEW180=

USA.gov is the U.S. government's official web portal to all federal, state and local government web resources and services.